createdAt,value
2022-11-18T00:01:36.986Z,90.20
2022-11-18T00:04:04.261Z,90.10
2022-11-18T00:06:31.596Z,90.00
2022-11-18T00:09:00.188Z,89.40
2022-11-18T00:11:45.921Z,90.00
2022-11-18T00:14:19.498Z,90.00
2022-11-18T00:16:54.863Z,90.10
2022-11-18T00:19:25.078Z,90.10
2022-11-18T00:21:52.355Z,90.10
2022-11-18T00:24:19.969Z,90.10
2022-11-18T00:26:47.466Z,90.10
2022-11-18T00:29:15.066Z,90.10
2022-11-18T00:31:42.735Z,90.10
2022-11-18T00:34:13.149Z,90.10
2022-11-18T00:36:41.908Z,90.10
2022-11-18T00:39:11.142Z,90.00
2022-11-18T00:42:07.613Z,90.00
2022-11-18T00:44:35.179Z,90.10
2022-11-18T00:47:02.593Z,90.10
2022-11-18T00:49:29.843Z,90.10
2022-11-18T00:51:57.419Z,90.20
2022-11-18T00:54:24.659Z,90.10
2022-11-18T00:56:51.844Z,90.20
2022-11-18T00:59:19.321Z,90.20
2022-11-18T01:01:46.847Z,90.20
2022-11-18T01:04:14.150Z,90.20
2022-11-18T01:06:41.523Z,90.20
2022-11-18T01:09:08.817Z,90.20
2022-11-18T01:11:54.797Z,90.20
2022-11-18T01:14:24.903Z,90.20
2022-11-18T01:16:56.292Z,90.30
2022-11-18T01:19:23.960Z,90.00
2022-11-18T01:21:51.171Z,90.40
2022-11-18T01:24:18.400Z,90.40
2022-11-18T01:26:45.544Z,90.60
2022-11-18T01:29:12.730Z,90.50
2022-11-18T01:32:01.508Z,90.50
2022-11-18T01:34:29.245Z,90.50
2022-11-18T01:36:58.068Z,90.50
2022-11-18T01:39:25.492Z,90.50
2022-11-18T01:41:52.732Z,90.50
2022-11-18T01:44:58.748Z,90.50
2022-11-18T01:47:29.775Z,90.50
2022-11-18T01:49:58.922Z,90.60
2022-11-18T01:52:26.947Z,90.60
2022-11-18T01:54:58.803Z,90.60
2022-11-18T01:57:28.140Z,90.50
2022-11-18T01:59:59.084Z,90.20
2022-11-18T02:02:30.007Z,90.70
2022-11-18T02:04:58.539Z,90.90
2022-11-18T02:07:26.268Z,90.90
2022-11-18T02:09:55.739Z,90.90
2022-11-18T02:12:23.339Z,90.90
2022-11-18T02:14:51.587Z,91.00
2022-11-18T02:17:38.503Z,91.20
2022-11-18T02:20:30.976Z,91.10
2022-11-18T02:23:38.134Z,90.90
2022-11-18T02:26:36.212Z,91.00
2022-11-18T02:29:10.694Z,91.00
2022-11-18T02:31:59.288Z,91.00
2022-11-18T02:34:47.229Z,91.00
2022-11-18T02:37:29.089Z,91.00
2022-11-18T02:40:05.359Z,91.20
2022-11-18T02:42:35.322Z,91.10
2022-11-18T02:45:16.814Z,91.50
2022-11-18T02:47:46.883Z,91.10
2022-11-18T02:50:19.584Z,91.10
2022-11-18T02:52:50.016Z,91.10
2022-11-18T02:55:18.156Z,91.10
2022-11-18T02:57:46.234Z,91.20
2022-11-18T03:00:14.085Z,91.30
2022-11-18T03:02:47.483Z,91.20
2022-11-18T03:05:30.427Z,91.30
2022-11-18T03:08:06.412Z,91.40
2022-11-18T03:10:47.528Z,91.50
2022-11-18T03:13:30.119Z,91.50
2022-11-18T03:16:09.429Z,91.40
2022-11-18T03:19:09.623Z,91.40
2022-11-18T03:21:41.429Z,91.60
2022-11-18T03:24:25.638Z,91.90
2022-11-18T03:27:00.809Z,91.90
2022-11-18T03:29:36.804Z,92.40
2022-11-18T03:32:09.772Z,91.80
2022-11-18T03:34:45.722Z,91.70
2022-11-18T03:37:15.911Z,91.60
2022-11-18T03:39:48.977Z,91.70
2022-11-18T03:42:32.707Z,91.60
2022-11-18T03:45:10.223Z,91.70
2022-11-18T03:47:42.898Z,91.70
2022-11-18T03:50:20.968Z,91.70
2022-11-18T03:52:50.845Z,91.70
2022-11-18T03:55:23.524Z,91.90
2022-11-18T03:58:04.395Z,92.40
2022-11-18T04:00:38.219Z,91.80
2022-11-18T04:03:05.550Z,91.90
2022-11-18T04:05:37.568Z,91.90
2022-11-18T04:08:11.239Z,92.00
2022-11-18T04:10:50.476Z,92.40
2022-11-18T04:13:19.905Z,91.80
2022-11-18T04:15:47.318Z,91.80
2022-11-18T04:18:14.512Z,91.60
2022-11-18T04:20:41.704Z,92.00
2022-11-18T04:23:09.206Z,92.00
2022-11-18T04:25:36.819Z,92.10
2022-11-18T04:28:04.922Z,91.90
2022-11-18T04:30:32.298Z,92.10
2022-11-18T04:32:59.569Z,92.10
2022-11-18T04:35:27.144Z,92.00
2022-11-18T04:37:54.658Z,92.00
2022-11-18T04:40:21.951Z,92.10
2022-11-18T04:42:49.131Z,92.10
2022-11-18T04:45:16.296Z,92.10
2022-11-18T04:47:43.483Z,92.20
2022-11-18T04:50:10.685Z,92.10
2022-11-18T04:52:37.917Z,92.00
2022-11-18T04:55:05.392Z,92.00
2022-11-18T04:57:32.612Z,92.00
2022-11-18T04:59:59.762Z,92.00
2022-11-18T05:02:26.936Z,92.20
2022-11-18T05:04:54.204Z,92.10
2022-11-18T05:07:21.487Z,92.10
2022-11-18T05:09:48.758Z,92.10
2022-11-18T05:12:34.884Z,92.10
2022-11-18T05:15:02.074Z,92.10
2022-11-18T05:17:29.266Z,92.10
2022-11-18T05:19:56.449Z,91.70
2022-11-18T05:22:23.665Z,91.90
2022-11-18T05:24:50.942Z,91.80
2022-11-18T05:27:18.240Z,91.80
2022-11-18T05:29:45.429Z,91.90
2022-11-18T05:32:12.623Z,92.00
2022-11-18T05:34:41.500Z,91.80
2022-11-18T05:37:09.125Z,91.70
2022-11-18T05:39:36.584Z,91.50
2022-11-18T05:42:22.513Z,91.40
2022-11-18T05:44:56.407Z,91.20
2022-11-18T05:47:26.235Z,91.20
2022-11-18T05:49:53.441Z,91.10
2022-11-18T05:52:20.843Z,91.00
2022-11-18T05:54:50.780Z,91.00
2022-11-18T05:57:17.980Z,91.10
2022-11-18T05:59:45.290Z,91.10
2022-11-18T06:02:16.896Z,91.10
2022-11-18T06:04:50.482Z,91.00
2022-11-18T06:07:25.040Z,91.00
2022-11-18T06:10:03.509Z,91.00
2022-11-18T06:12:37.971Z,91.00
2022-11-18T06:15:18.274Z,91.00
2022-11-18T06:17:56.986Z,90.90
2022-11-18T06:20:24.420Z,90.90
2022-11-18T06:22:55.618Z,91.00
2022-11-18T06:25:24.078Z,91.00
2022-11-18T06:27:53.884Z,91.00
2022-11-18T06:30:23.533Z,91.00
2022-11-18T06:32:53.097Z,91.00
2022-11-18T06:35:20.308Z,91.00
2022-11-18T06:37:47.471Z,90.90
2022-11-18T06:40:14.673Z,90.90
2022-11-18T06:43:00.307Z,90.80
2022-11-18T06:45:27.774Z,90.80
2022-11-18T06:47:58.907Z,90.60
2022-11-18T06:50:26.263Z,90.60
2022-11-18T06:52:53.871Z,90.60
2022-11-18T06:55:21.025Z,90.50
2022-11-18T06:57:48.324Z,90.60
2022-11-18T07:00:16.222Z,90.50
2022-11-18T07:02:43.411Z,90.40
2022-11-18T07:05:10.545Z,90.40
2022-11-18T07:07:42.026Z,90.40
2022-11-18T07:10:10.040Z,90.50
2022-11-18T07:12:37.232Z,90.40
2022-11-18T07:15:04.695Z,90.50
2022-11-18T07:17:31.968Z,90.40
2022-11-18T07:20:01.302Z,90.40
2022-11-18T07:22:28.876Z,90.30
2022-11-18T07:24:56.051Z,90.30
2022-11-18T07:27:23.194Z,90.30
2022-11-18T07:29:50.355Z,90.30
2022-11-18T07:32:17.570Z,90.20
2022-11-18T07:34:45.767Z,90.10
2022-11-18T07:37:12.898Z,90.10
2022-11-18T07:39:40.025Z,90.00
2022-11-18T07:42:08.645Z,90.00
2022-11-18T07:44:35.872Z,90.00
2022-11-18T07:47:03.017Z,89.70
2022-11-18T07:49:30.183Z,89.60
2022-11-18T07:51:57.402Z,89.60
2022-11-18T07:54:24.582Z,89.60
2022-11-18T07:56:51.765Z,89.40
2022-11-18T07:59:19.154Z,89.30
2022-11-18T08:01:46.624Z,89.20
2022-11-18T08:04:14.013Z,89.00
2022-11-18T08:06:41.398Z,89.00
2022-11-18T08:09:09.237Z,89.00
2022-11-18T08:11:36.760Z,89.00
2022-11-18T08:14:03.990Z,89.10
2022-11-18T08:16:31.209Z,88.90
2022-11-18T08:19:00.143Z,88.70
2022-11-18T08:21:27.313Z,88.60
2022-11-18T08:23:57.118Z,88.40
2022-11-18T08:26:25.297Z,88.30
2022-11-18T08:28:53.460Z,88.20
2022-11-18T08:31:25.913Z,88.10
2022-11-18T08:34:05.143Z,88.20
2022-11-18T08:36:35.418Z,87.90
2022-11-18T08:39:05.587Z,88.00
2022-11-18T08:41:35.914Z,87.90
2022-11-18T08:44:04.345Z,88.20
2022-11-18T08:46:31.792Z,87.70
2022-11-18T08:48:59.569Z,87.40
2022-11-18T08:51:26.954Z,87.20
2022-11-18T08:53:54.403Z,87.30
2022-11-18T08:56:25.149Z,87.60
2022-11-18T08:58:52.864Z,87.20
2022-11-18T09:01:20.303Z,86.80
2022-11-18T09:03:48.556Z,86.50
2022-11-18T09:06:20.493Z,86.00
2022-11-18T09:08:47.987Z,86.00
2022-11-18T09:11:18.670Z,85.30
2022-11-18T09:16:35.038Z,85.30
2022-11-18T09:19:18.536Z,85.50
2022-11-18T09:21:49.848Z,85.70
2022-11-18T09:24:17.510Z,85.90
2022-11-18T09:26:44.967Z,86.00
2022-11-18T09:29:12.130Z,86.00
2022-11-18T09:31:39.355Z,86.30
2022-11-18T09:34:06.587Z,86.20
2022-11-18T09:36:33.897Z,85.70
2022-11-18T09:39:01.166Z,85.10
2022-11-18T09:41:47.308Z,84.50
2022-11-18T09:44:14.483Z,85.70
2022-11-18T09:46:56.495Z,83.00
2022-11-18T09:49:38.222Z,74.30
2022-11-18T09:52:22.268Z,70.50
2022-11-18T09:54:50.403Z,71.50
2022-11-18T09:57:26.855Z,76.80
2022-11-18T09:59:54.423Z,74.00
2022-11-18T10:02:45.367Z,68.20
2022-11-18T10:05:22.149Z,66.10
2022-11-18T10:08:12.173Z,60.50
2022-11-18T10:10:57.978Z,57.20
2022-11-18T10:13:46.745Z,59.00
2022-11-18T10:16:57.966Z,63.80
2022-11-18T10:19:38.545Z,66.10
2022-11-18T10:22:38.924Z,69.70
2022-11-18T10:25:13.465Z,72.80
2022-11-18T10:27:43.252Z,74.40
2022-11-18T10:30:22.342Z,75.00
2022-11-18T10:32:56.524Z,75.60
2022-11-18T10:35:28.121Z,76.20
2022-11-18T10:38:08.994Z,76.90
2022-11-18T10:40:43.055Z,76.90
2022-11-18T10:43:10.962Z,77.40
2022-11-18T10:45:38.216Z,76.90
2022-11-18T10:48:14.378Z,77.40
2022-11-18T10:50:43.858Z,77.80
2022-11-18T10:53:31.698Z,78.10
2022-11-18T10:56:11.555Z,78.30
2022-11-18T10:58:44.844Z,78.60
2022-11-18T11:01:24.839Z,78.60
2022-11-18T11:04:22.231Z,78.60
2022-11-18T11:06:49.479Z,78.40
2022-11-18T11:09:29.723Z,79.00
2022-11-18T11:12:18.571Z,78.40
2022-11-18T11:14:50.699Z,78.10
2022-11-18T11:17:35.963Z,78.10
2022-11-18T11:20:19.058Z,77.10
2022-11-18T11:22:46.721Z,76.60
2022-11-18T11:25:26.265Z,75.90
2022-11-18T11:31:17.885Z,75.30
2022-11-18T11:34:07.873Z,76.70
2022-11-18T11:36:50.813Z,77.50
2022-11-18T11:39:27.091Z,78.20
2022-11-18T11:42:21.772Z,78.30
2022-11-18T11:45:13.947Z,79.60
2022-11-18T11:48:02.843Z,80.90
2022-11-18T11:51:05.153Z,81.60
2022-11-18T11:54:07.667Z,82.20
2022-11-18T11:56:41.688Z,81.90
2022-11-18T11:59:16.166Z,81.50
2022-11-18T12:02:17.339Z,81.60
2022-11-18T12:04:53.782Z,81.60
2022-11-18T12:07:26.612Z,81.90
2022-11-18T12:09:56.947Z,82.30
2022-11-18T12:12:50.249Z,80.80
2022-11-18T12:15:35.454Z,80.00
2022-11-18T12:18:29.905Z,79.20
2022-11-18T12:20:57.148Z,79.00
2022-11-18T12:23:26.921Z,79.10
2022-11-18T12:26:11.512Z,79.30
2022-11-18T12:28:45.141Z,79.90
2022-11-18T12:31:18.515Z,80.30
2022-11-18T12:34:16.710Z,80.70
2022-11-18T12:36:43.867Z,80.80
2022-11-18T12:39:25.890Z,80.50
2022-11-18T12:42:13.098Z,80.10
2022-11-18T12:44:41.798Z,80.00
2022-11-18T12:47:14.521Z,80.50
2022-11-18T12:49:44.677Z,81.60
2022-11-18T12:52:29.951Z,82.90
2022-11-18T12:55:03.150Z,85.10
2022-11-18T12:57:33.795Z,85.00
2022-11-18T13:00:23.971Z,85.80
2022-11-18T13:02:56.157Z,86.50
2022-11-18T13:05:30.287Z,86.20
2022-11-18T13:08:14.743Z,86.60
2022-11-18T13:10:55.870Z,87.00
2022-11-18T13:13:28.535Z,86.70
2022-11-18T13:16:17.561Z,86.80
2022-11-18T13:18:50.632Z,86.70
2022-11-18T13:21:45.520Z,86.60
2022-11-18T13:24:15.084Z,87.30
2022-11-18T13:26:44.612Z,86.80
2022-11-18T13:29:23.104Z,86.60
2022-11-18T13:32:12.805Z,86.00
2022-11-18T13:34:51.611Z,85.90
2022-11-18T13:37:22.086Z,85.60
2022-11-18T13:39:49.954Z,85.60
2022-11-18T13:42:26.325Z,85.60
2022-11-18T13:44:57.516Z,85.50
2022-11-18T13:47:36.926Z,85.30
2022-11-18T13:50:30.865Z,85.00
2022-11-18T13:53:23.130Z,84.80
2022-11-18T13:56:06.947Z,84.70
2022-11-18T13:59:10.323Z,83.60
2022-11-18T14:01:33.769Z,83.00
2022-11-18T14:04:07.153Z,82.80
2022-11-18T14:06:39.823Z,82.50
2022-11-18T14:09:15.594Z,82.60
2022-11-18T14:11:46.092Z,82.90
2022-11-18T14:14:33.644Z,82.80
2022-11-18T14:17:24.608Z,82.80
2022-11-18T14:19:54.953Z,82.70
2022-11-18T14:22:33.405Z,82.70
2022-11-18T14:25:01.948Z,82.50
2022-11-18T14:27:43.528Z,82.60
2022-11-18T14:30:30.926Z,82.90
2022-11-18T14:33:27.824Z,82.50
2022-11-18T14:36:01.725Z,83.10
2022-11-18T14:41:45.560Z,82.40
2022-11-18T14:44:13.398Z,82.60
2022-11-18T14:46:43.121Z,82.60
2022-11-18T14:49:19.767Z,82.20
2022-11-18T14:51:47.834Z,81.90
2022-11-18T14:54:23.826Z,81.80
2022-11-18T14:56:55.429Z,82.00
2022-11-18T14:59:22.976Z,82.10
2022-11-18T15:01:50.180Z,82.40
2022-11-18T15:04:18.196Z,82.30
2022-11-18T15:06:45.726Z,82.70
2022-11-18T15:09:13.762Z,82.50
2022-11-18T15:11:41.213Z,82.50
2022-11-18T15:14:08.431Z,82.70
2022-11-18T15:16:35.635Z,83.00
2022-11-18T15:19:05.075Z,83.20
2022-11-18T15:21:33.389Z,83.30
2022-11-18T15:24:00.600Z,83.50
2022-11-18T15:26:33.783Z,83.40
2022-11-18T15:29:01.333Z,83.70
2022-11-18T15:31:28.536Z,83.70
2022-11-18T15:33:55.873Z,84.20
2022-11-18T15:36:25.105Z,85.00
2022-11-18T15:38:53.881Z,85.50
2022-11-18T15:41:23.859Z,86.00
2022-11-18T15:43:51.258Z,86.40
2022-11-18T15:46:20.013Z,86.60
2022-11-18T15:48:48.405Z,87.00
2022-11-18T15:51:15.789Z,87.40
2022-11-18T15:53:42.965Z,87.60
2022-11-18T15:56:16.133Z,87.40
2022-11-18T15:58:43.439Z,87.60
2022-11-18T16:01:10.854Z,87.50
2022-11-18T16:03:38.182Z,87.70
2022-11-18T16:06:05.621Z,87.70
2022-11-18T16:08:35.233Z,88.80
2022-11-18T16:11:20.748Z,88.00
2022-11-18T16:13:47.965Z,88.30
2022-11-18T16:16:20.365Z,88.30
2022-11-18T16:18:47.676Z,88.20
2022-11-18T16:21:14.933Z,88.20
2022-11-18T16:23:42.036Z,88.00
2022-11-18T16:26:09.164Z,87.90
2022-11-18T16:28:36.301Z,87.90
2022-11-18T16:31:22.216Z,88.50
2022-11-18T16:33:49.337Z,88.80
2022-11-18T16:36:16.750Z,89.20
2022-11-18T16:38:43.899Z,89.50
2022-11-18T16:41:29.787Z,89.70
2022-11-18T16:43:58.672Z,89.90
2022-11-18T16:46:26.899Z,90.00
2022-11-18T16:48:56.557Z,90.00
2022-11-18T16:51:28.871Z,90.00
2022-11-18T16:53:58.248Z,90.00
2022-11-18T16:56:31.356Z,90.10
2022-11-18T16:59:06.971Z,90.10
2022-11-18T17:01:34.172Z,90.10
2022-11-18T17:04:01.565Z,90.00
2022-11-18T17:06:31.025Z,90.00
2022-11-18T17:08:59.327Z,90.00
2022-11-18T17:11:26.872Z,90.00
2022-11-18T17:13:58.070Z,90.30
2022-11-18T17:16:26.460Z,90.40
2022-11-18T17:18:58.741Z,90.40
2022-11-18T17:21:27.352Z,90.40
2022-11-18T17:23:54.994Z,90.60
2022-11-18T17:26:27.603Z,90.60
2022-11-18T17:28:55.635Z,90.50
2022-11-18T17:31:23.853Z,91.10
2022-11-18T17:33:53.323Z,90.80
2022-11-18T17:36:22.620Z,90.80
2022-11-18T17:38:51.864Z,90.80
2022-11-18T17:41:40.025Z,91.00
2022-11-18T17:44:09.283Z,91.10
2022-11-18T17:46:38.485Z,91.10
2022-11-18T17:49:12.201Z,91.00
2022-11-18T17:51:39.690Z,91.10
2022-11-18T17:54:07.978Z,91.00
2022-11-18T17:56:35.371Z,90.90
2022-11-18T17:59:02.582Z,91.10
2022-11-18T18:01:29.972Z,91.20
2022-11-18T18:03:57.444Z,91.10
2022-11-18T18:06:25.085Z,91.10
2022-11-18T18:08:56.638Z,91.10
2022-11-18T18:11:24.740Z,91.20
2022-11-18T18:14:10.364Z,91.30
2022-11-18T18:16:38.596Z,91.30
2022-11-18T18:19:07.678Z,91.30
2022-11-18T18:21:35.707Z,91.50
2022-11-18T18:24:04.422Z,91.90
2022-11-18T18:26:32.197Z,91.10
2022-11-18T18:29:00.516Z,91.10
2022-11-18T18:31:28.416Z,91.10
2022-11-18T18:33:55.801Z,91.10
2022-11-18T18:36:25.200Z,91.00
2022-11-18T18:38:52.550Z,91.10
2022-11-18T18:41:22.172Z,91.20
2022-11-18T18:43:49.961Z,91.40
2022-11-18T18:46:36.503Z,91.30
2022-11-18T18:49:06.175Z,91.40
2022-11-18T18:51:44.952Z,91.50
2022-11-18T18:54:14.192Z,91.50
2022-11-18T18:56:42.117Z,91.30
2022-11-18T18:59:09.798Z,91.20
2022-11-18T19:01:38.108Z,91.40
2022-11-18T19:04:07.328Z,91.50
2022-11-18T19:09:25.405Z,91.10
2022-11-18T19:12:12.370Z,91.50
2022-11-18T19:14:39.746Z,91.50
2022-11-18T19:17:11.256Z,91.30
2022-11-18T19:19:59.562Z,91.30
2022-11-18T19:22:31.000Z,91.40
2022-11-18T19:24:59.628Z,91.40
2022-11-18T19:27:27.838Z,91.30
2022-11-18T19:29:55.071Z,91.20
2022-11-18T19:32:22.360Z,91.00
2022-11-18T19:34:49.502Z,91.00
2022-11-18T19:37:16.724Z,90.90
2022-11-18T19:39:43.974Z,90.60
2022-11-18T19:42:11.331Z,91.10
2022-11-18T19:44:39.130Z,91.30
2022-11-18T19:47:06.352Z,91.30
2022-11-18T19:49:33.570Z,91.00
2022-11-18T19:52:00.742Z,91.00
2022-11-18T19:54:27.957Z,91.00
2022-11-18T19:56:55.130Z,91.10
2022-11-18T19:59:22.419Z,90.80
2022-11-18T20:01:49.620Z,91.20
2022-11-18T20:04:16.987Z,91.30
2022-11-18T20:06:44.220Z,91.20
2022-11-18T20:09:11.699Z,91.30
2022-11-18T20:11:39.270Z,91.10
2022-11-18T20:14:07.077Z,91.10
2022-11-18T20:16:36.527Z,91.10
2022-11-18T20:19:10.577Z,91.00
2022-11-18T20:21:38.888Z,91.10
2022-11-18T20:24:07.868Z,91.30
2022-11-18T20:26:38.613Z,91.00
2022-11-18T20:29:06.910Z,91.10
2022-11-18T20:31:35.648Z,90.90
2022-11-18T20:34:04.258Z,90.80
2022-11-18T20:36:35.503Z,90.80
2022-11-18T20:39:14.384Z,90.60
2022-11-18T20:41:41.926Z,91.00
2022-11-18T20:44:09.203Z,90.90
2022-11-18T20:46:36.378Z,91.10
2022-11-18T20:49:03.545Z,90.90
2022-11-18T20:51:30.648Z,90.60
2022-11-18T20:53:58.498Z,90.80
2022-11-18T20:56:27.365Z,90.70
2022-11-18T20:58:57.706Z,90.70
2022-11-18T21:01:27.872Z,90.90
2022-11-18T21:03:57.440Z,90.80
2022-11-18T21:06:26.967Z,90.90
2022-11-18T21:08:55.993Z,90.90
2022-11-18T21:11:23.410Z,90.90
2022-11-18T21:14:09.124Z,91.30
2022-11-18T21:16:36.651Z,90.80
2022-11-18T21:19:04.598Z,90.80
2022-11-18T21:21:52.333Z,90.90
2022-11-18T21:24:26.740Z,90.70
2022-11-18T21:26:55.028Z,90.70
2022-11-18T21:29:23.948Z,90.60
2022-11-18T21:31:51.892Z,90.50
2022-11-18T21:34:19.298Z,90.30
2022-11-18T21:36:51.641Z,90.50
2022-11-18T21:39:24.772Z,90.50
2022-11-18T21:41:56.208Z,90.60
2022-11-18T21:44:25.641Z,90.60
2022-11-18T21:46:52.960Z,90.50
2022-11-18T21:49:20.481Z,90.50
2022-11-18T21:51:47.778Z,90.40
2022-11-18T21:54:16.011Z,90.30
2022-11-18T21:56:43.382Z,90.40
2022-11-18T21:59:10.554Z,90.00
2022-11-18T22:01:37.984Z,90.10
2022-11-18T22:04:05.845Z,90.30
2022-11-18T22:06:34.248Z,90.30
2022-11-18T22:09:03.149Z,90.20
2022-11-18T22:11:30.647Z,90.20
2022-11-18T22:13:58.307Z,90.20
2022-11-18T22:16:26.813Z,90.10
2022-11-18T22:19:02.404Z,90.20
2022-11-18T22:21:32.425Z,90.10
2022-11-18T22:24:00.939Z,90.00
2022-11-18T22:26:28.733Z,89.80
2022-11-18T22:28:57.585Z,89.00
2022-11-18T22:31:26.805Z,89.70
2022-11-18T22:33:55.360Z,89.80
2022-11-18T22:36:25.079Z,89.60
2022-11-18T22:38:53.267Z,88.30
2022-11-18T22:41:41.910Z,89.10
2022-11-18T22:44:10.145Z,89.30
2022-11-18T22:46:38.590Z,89.40
2022-11-18T22:49:07.270Z,89.60
2022-11-18T22:51:35.419Z,89.70
2022-11-18T22:54:37.263Z,89.50
2022-11-18T22:56:50.228Z,89.10
2022-11-18T22:59:17.691Z,89.10
2022-11-18T23:01:44.986Z,90.00
2022-11-18T23:04:12.125Z,89.50
2022-11-18T23:06:39.301Z,89.80
2022-11-18T23:09:06.476Z,89.50
2022-11-18T23:11:52.275Z,89.60
2022-11-18T23:14:19.444Z,88.50
2022-11-18T23:16:46.638Z,89.60
2022-11-18T23:19:17.305Z,89.50
2022-11-18T23:21:45.343Z,89.20
2022-11-18T23:24:14.139Z,88.90
2022-11-18T23:26:42.000Z,88.50
2022-11-18T23:29:10.641Z,88.30
2022-11-18T23:31:41.338Z,88.70
2022-11-18T23:34:13.278Z,88.50
2022-11-18T23:36:41.341Z,88.40
2022-11-18T23:39:08.883Z,88.30
2022-11-18T23:41:36.225Z,88.30
2022-11-18T23:44:04.161Z,88.20
2022-11-18T23:46:32.432Z,88.30
2022-11-18T23:48:59.653Z,87.90
2022-11-18T23:51:26.996Z,88.00
2022-11-18T23:53:57.436Z,87.80
2022-11-18T23:56:26.603Z,87.90
2022-11-18T23:58:55.650Z,88.30
